sensor_id;sensor_type;location;lat;lon;timestamp;P1;durP1;ratioP1;P2;durP2;ratioP2
15002;SDS011;7597;53.590;10.020;2023-03-01T00:01:00;8.13;;;5.67;;
15002;SDS011;7597;53.590;10.020;2023-03-01T00:03:26;10.03;;;5.83;;
15002;SDS011;7597;53.590;10.020;2023-03-01T00:05:53;8.43;;;5.67;;
15002;SDS011;7597;53.590;10.020;2023-03-01T00:08:20;10.93;;;6.30;;
15002;SDS011;7597;53.590;10.020;2023-03-01T00:10:46;8.80;;;5.70;;
15002;SDS011;7597;53.590;10.020;2023-03-01T00:13:13;9.60;;;6.00;;
15002;SDS011;7597;53.590;10.020;2023-03-01T00:15:40;9.03;;;6.53;;
15002;SDS011;7597;53.590;10.020;2023-03-01T00:18:07;10.23;;;5.97;;
15002;SDS011;7597;53.590;10.020;2023-03-01T00:20:34;7.43;;;6.27;;
15002;SDS011;7597;53.590;10.020;2023-03-01T00:23:00;7.67;;;5.63;;
15002;SDS011;7597;53.590;10.020;2023-03-01T00:25:27;8.90;;;5.97;;
15002;SDS011;7597;53.590;10.020;2023-03-01T00:27:54;9.37;;;6.27;;
15002;SDS011;7597;53.590;10.020;2023-03-01T00:30:21;11.90;;;5.77;;
15002;SDS011;7597;53.590;10.020;2023-03-01T00:32:48;8.70;;;5.70;;
15002;SDS011;7597;53.590;10.020;2023-03-01T00:35:15;9.63;;;6.23;;
15002;SDS011;7597;53.590;10.020;2023-03-01T00:37:41;10.73;;;6.30;;
15002;SDS011;7597;53.590;10.020;2023-03-01T00:40:08;7.60;;;5.23;;
15002;SDS011;7597;53.590;10.020;2023-03-01T00:42:35;9.07;;;6.23;;
15002;SDS011;7597;53.590;10.020;2023-03-01T00:45:02;9.60;;;6.23;;
15002;SDS011;7597;53.590;10.020;2023-03-01T00:47:29;8.63;;;6.17;;
15002;SDS011;7597;53.590;10.020;2023-03-01T00:49:56;9.37;;;6.57;;
15002;SDS011;7597;53.590;10.020;2023-03-01T00:52:22;8.93;;;5.80;;
15002;SDS011;7597;53.590;10.020;2023-03-01T00:54:51;10.60;;;5.80;;
15002;SDS011;7597;53.590;10.020;2023-03-01T00:57:16;10.20;;;6.40;;
15002;SDS011;7597;53.590;10.020;2023-03-01T00:59:42;8.63;;;5.87;;
15002;SDS011;7597;53.590;10.020;2023-03-01T01:02:09;8.63;;;5.93;;
15002;SDS011;7597;53.590;10.020;2023-03-01T01:04:36;9.57;;;6.00;;
15002;SDS011;7597;53.590;10.020;2023-03-01T01:07:02;8.27;;;6.03;;
15002;SDS011;7597;53.590;10.020;2023-03-01T01:09:29;8.87;;;5.80;;
15002;SDS011;7597;53.590;10.020;2023-03-01T01:11:56;8.10;;;5.40;;
15002;SDS011;7597;53.590;10.020;2023-03-01T01:14:22;10.37;;;5.60;;
15002;SDS011;7597;53.590;10.020;2023-03-01T01:16:49;9.87;;;6.03;;
15002;SDS011;7597;53.590;10.020;2023-03-01T01:19:16;10.53;;;5.97;;
15002;SDS011;7597;53.590;10.020;2023-03-01T01:21:42;8.47;;;5.90;;
15002;SDS011;7597;53.590;10.020;2023-03-01T01:24:09;10.00;;;5.77;;
15002;SDS011;7597;53.590;10.020;2023-03-01T01:26:35;8.97;;;5.60;;
15002;SDS011;7597;53.590;10.020;2023-03-01T01:29:03;9.10;;;5.80;;
15002;SDS011;7597;53.590;10.020;2023-03-01T01:31:29;9.43;;;5.70;;
15002;SDS011;7597;53.590;10.020;2023-03-01T01:33:56;8.00;;;5.93;;
15002;SDS011;7597;53.590;10.020;2023-03-01T01:36:22;8.87;;;5.77;;
15002;SDS011;7597;53.590;10.020;2023-03-01T01:38:49;8.57;;;5.53;;
15002;SDS011;7597;53.590;10.020;2023-03-01T01:41:16;8.83;;;5.40;;
15002;SDS011;7597;53.590;10.020;2023-03-01T01:43:44;8.17;;;5.47;;
15002;SDS011;7597;53.590;10.020;2023-03-01T01:46:14;8.03;;;5.23;;
15002;SDS011;7597;53.590;10.020;2023-03-01T01:48:45;7.27;;;5.33;;
15002;SDS011;7597;53.590;10.020;2023-03-01T01:51:13;8.87;;;6.33;;
15002;SDS011;7597;53.590;10.020;2023-03-01T01:53:39;11.37;;;5.60;;
15002;SDS011;7597;53.590;10.020;2023-03-01T01:56:06;7.70;;;5.30;;
15002;SDS011;7597;53.590;10.020;2023-03-01T01:58:32;7.43;;;5.23;;
15002;SDS011;7597;53.590;10.020;2023-03-01T02:00:59;6.33;;;5.20;;
15002;SDS011;7597;53.590;10.020;2023-03-01T02:03:27;7.90;;;5.23;;
15002;SDS011;7597;53.590;10.020;2023-03-01T02:06:28;5.57;;;4.77;;
15002;SDS011;7597;53.590;10.020;2023-03-01T02:08:45;7.83;;;5.67;;
15002;SDS011;7597;53.590;10.020;2023-03-01T02:11:12;9.07;;;5.70;;
15002;SDS011;7597;53.590;10.020;2023-03-01T02:13:38;6.70;;;5.27;;
15002;SDS011;7597;53.590;10.020;2023-03-01T02:16:07;7.93;;;4.93;;
15002;SDS011;7597;53.590;10.020;2023-03-01T02:18:32;7.07;;;5.17;;
15002;SDS011;7597;53.590;10.020;2023-03-01T02:21:02;7.57;;;4.80;;
15002;SDS011;7597;53.590;10.020;2023-03-01T02:23:41;8.70;;;5.47;;
15002;SDS011;7597;53.590;10.020;2023-03-01T02:26:09;7.17;;;5.07;;
15002;SDS011;7597;53.590;10.020;2023-03-01T02:28:36;5.87;;;5.27;;
15002;SDS011;7597;53.590;10.020;2023-03-01T02:31:03;7.87;;;5.13;;
15002;SDS011;7597;53.590;10.020;2023-03-01T02:33:35;8.37;;;5.17;;
15002;SDS011;7597;53.590;10.020;2023-03-01T02:36:05;8.50;;;5.07;;
15002;SDS011;7597;53.590;10.020;2023-03-01T02:38:31;6.73;;;4.93;;
15002;SDS011;7597;53.590;10.020;2023-03-01T02:40:57;7.77;;;5.10;;
15002;SDS011;7597;53.590;10.020;2023-03-01T02:43:29;7.00;;;4.83;;
15002;SDS011;7597;53.590;10.020;2023-03-01T02:45:51;8.07;;;4.90;;
15002;SDS011;7597;53.590;10.020;2023-03-01T02:48:18;8.07;;;5.70;;
15002;SDS011;7597;53.590;10.020;2023-03-01T02:50:51;6.70;;;5.33;;
15002;SDS011;7597;53.590;10.020;2023-03-01T02:53:29;7.07;;;4.83;;
15002;SDS011;7597;53.590;10.020;2023-03-01T02:55:54;6.30;;;5.00;;
15002;SDS011;7597;53.590;10.020;2023-03-01T02:58:21;7.13;;;4.50;;
15002;SDS011;7597;53.590;10.020;2023-03-01T03:00:47;8.27;;;4.97;;
15002;SDS011;7597;53.590;10.020;2023-03-01T03:03:15;7.97;;;5.33;;
15002;SDS011;7597;53.590;10.020;2023-03-01T03:05:41;7.00;;;5.57;;
15002;SDS011;7597;53.590;10.020;2023-03-01T03:08:08;5.80;;;4.90;;
15002;SDS011;7597;53.590;10.020;2023-03-01T03:10:36;9.50;;;5.20;;
15002;SDS011;7597;53.590;10.020;2023-03-01T03:13:05;6.27;;;4.37;;
15002;SDS011;7597;53.590;10.020;2023-03-01T03:15:30;7.73;;;5.00;;
15002;SDS011;7597;53.590;10.020;2023-03-01T03:17:57;6.27;;;5.00;;
15002;SDS011;7597;53.590;10.020;2023-03-01T03:20:24;6.67;;;4.80;;
15002;SDS011;7597;53.590;10.020;2023-03-01T03:22:51;7.20;;;5.07;;
15002;SDS011;7597;53.590;10.020;2023-03-01T03:25:16;7.73;;;5.40;;
15002;SDS011;7597;53.590;10.020;2023-03-01T03:27:43;7.43;;;5.10;;
15002;SDS011;7597;53.590;10.020;2023-03-01T03:30:10;8.60;;;5.30;;
15002;SDS011;7597;53.590;10.020;2023-03-01T03:32:37;7.77;;;4.87;;
15002;SDS011;7597;53.590;10.020;2023-03-01T03:35:04;7.03;;;5.13;;
15002;SDS011;7597;53.590;10.020;2023-03-01T03:37:31;7.67;;;5.07;;
15002;SDS011;7597;53.590;10.020;2023-03-01T03:40:04;8.33;;;5.10;;
15002;SDS011;7597;53.590;10.020;2023-03-01T03:42:31;8.17;;;5.33;;
15002;SDS011;7597;53.590;10.020;2023-03-01T03:44:57;7.07;;;5.00;;
15002;SDS011;7597;53.590;10.020;2023-03-01T03:47:24;6.37;;;5.10;;
15002;SDS011;7597;53.590;10.020;2023-03-01T03:49:51;10.17;;;5.00;;
15002;SDS011;7597;53.590;10.020;2023-03-01T03:52:17;7.40;;;5.17;;
15002;SDS011;7597;53.590;10.020;2023-03-01T03:54:44;6.93;;;4.57;;
15002;SDS011;7597;53.590;10.020;2023-03-01T03:57:13;8.03;;;4.80;;
15002;SDS011;7597;53.590;10.020;2023-03-01T03:59:40;5.87;;;4.27;;
15002;SDS011;7597;53.590;10.020;2023-03-01T04:02:07;6.10;;;4.53;;
15002;SDS011;7597;53.590;10.020;2023-03-01T04:04:33;6.53;;;4.07;;
15002;SDS011;7597;53.590;10.020;2023-03-01T04:07:00;6.20;;;4.30;;
15002;SDS011;7597;53.590;10.020;2023-03-01T04:09:27;7.07;;;4.40;;
15002;SDS011;7597;53.590;10.020;2023-03-01T04:11:53;6.10;;;4.27;;
15002;SDS011;7597;53.590;10.020;2023-03-01T04:14:20;5.47;;;3.80;;
15002;SDS011;7597;53.590;10.020;2023-03-01T04:16:47;3.80;;;3.50;;
15002;SDS011;7597;53.590;10.020;2023-03-01T04:19:13;6.30;;;4.47;;
15002;SDS011;7597;53.590;10.020;2023-03-01T04:21:40;4.93;;;4.07;;
15002;SDS011;7597;53.590;10.020;2023-03-01T04:24:07;6.50;;;3.73;;
15002;SDS011;7597;53.590;10.020;2023-03-01T04:26:33;6.90;;;4.03;;
15002;SDS011;7597;53.590;10.020;2023-03-01T04:29:00;4.10;;;3.70;;
15002;SDS011;7597;53.590;10.020;2023-03-01T04:31:27;5.93;;;3.97;;
15002;SDS011;7597;53.590;10.020;2023-03-01T04:33:54;7.43;;;4.27;;
15002;SDS011;7597;53.590;10.020;2023-03-01T04:36:21;5.67;;;3.63;;
15002;SDS011;7597;53.590;10.020;2023-03-01T04:38:47;5.90;;;3.60;;
15002;SDS011;7597;53.590;10.020;2023-03-01T04:41:14;7.27;;;3.93;;
15002;SDS011;7597;53.590;10.020;2023-03-01T04:43:40;6.53;;;4.17;;
15002;SDS011;7597;53.590;10.020;2023-03-01T04:46:08;4.57;;;3.67;;
15002;SDS011;7597;53.590;10.020;2023-03-01T04:48:34;5.20;;;3.50;;
15002;SDS011;7597;53.590;10.020;2023-03-01T04:51:01;5.17;;;4.10;;
15002;SDS011;7597;53.590;10.020;2023-03-01T04:53:28;7.07;;;4.60;;
15002;SDS011;7597;53.590;10.020;2023-03-01T04:55:55;6.70;;;5.27;;
15002;SDS011;7597;53.590;10.020;2023-03-01T04:58:23;7.83;;;5.83;;
15002;SDS011;7597;53.590;10.020;2023-03-01T05:00:49;9.07;;;5.83;;
15002;SDS011;7597;53.590;10.020;2023-03-01T05:03:16;6.93;;;4.77;;
15002;SDS011;7597;53.590;10.020;2023-03-01T05:05:42;9.50;;;5.13;;
15002;SDS011;7597;53.590;10.020;2023-03-01T05:08:09;5.80;;;4.00;;
15002;SDS011;7597;53.590;10.020;2023-03-01T05:10:36;6.60;;;4.43;;
15002;SDS011;7597;53.590;10.020;2023-03-01T05:13:03;5.57;;;4.60;;
15002;SDS011;7597;53.590;10.020;2023-03-01T05:15:30;6.07;;;4.20;;
15002;SDS011;7597;53.590;10.020;2023-03-01T05:17:58;7.40;;;4.60;;
15002;SDS011;7597;53.590;10.020;2023-03-01T05:20:24;7.03;;;4.37;;
15002;SDS011;7597;53.590;10.020;2023-03-01T05:22:51;5.90;;;4.37;;
15002;SDS011;7597;53.590;10.020;2023-03-01T05:25:17;6.83;;;5.50;;
15002;SDS011;7597;53.590;10.020;2023-03-01T05:27:44;7.33;;;4.90;;
15002;SDS011;7597;53.590;10.020;2023-03-01T05:30:10;8.33;;;5.63;;
15002;SDS011;7597;53.590;10.020;2023-03-01T05:32:42;8.13;;;4.60;;
15002;SDS011;7597;53.590;10.020;2023-03-01T05:35:07;8.20;;;4.70;;
15002;SDS011;7597;53.590;10.020;2023-03-01T05:37:34;6.13;;;4.50;;
15002;SDS011;7597;53.590;10.020;2023-03-01T05:40:00;7.97;;;4.70;;
15002;SDS011;7597;53.590;10.020;2023-03-01T05:42:27;5.93;;;4.10;;
15002;SDS011;7597;53.590;10.020;2023-03-01T05:44:53;5.83;;;4.57;;
15002;SDS011;7597;53.590;10.020;2023-03-01T05:47:20;6.13;;;4.10;;
15002;SDS011;7597;53.590;10.020;2023-03-01T05:49:47;7.47;;;4.83;;
15002;SDS011;7597;53.590;10.020;2023-03-01T05:52:14;7.40;;;5.10;;
15002;SDS011;7597;53.590;10.020;2023-03-01T05:54:41;10.57;;;5.43;;
15002;SDS011;7597;53.590;10.020;2023-03-01T05:57:08;5.50;;;4.67;;
15002;SDS011;7597;53.590;10.020;2023-03-01T05:59:35;9.47;;;5.30;;
15002;SDS011;7597;53.590;10.020;2023-03-01T06:02:01;7.27;;;5.17;;
15002;SDS011;7597;53.590;10.020;2023-03-01T06:04:28;7.33;;;5.40;;
15002;SDS011;7597;53.590;10.020;2023-03-01T06:06:55;6.70;;;5.30;;
15002;SDS011;7597;53.590;10.020;2023-03-01T06:09:21;8.00;;;5.13;;
15002;SDS011;7597;53.590;10.020;2023-03-01T06:11:48;7.97;;;5.30;;
15002;SDS011;7597;53.590;10.020;2023-03-01T06:14:15;10.30;;;5.70;;
15002;SDS011;7597;53.590;10.020;2023-03-01T06:16:41;10.37;;;6.10;;
15002;SDS011;7597;53.590;10.020;2023-03-01T06:19:08;8.00;;;5.70;;
15002;SDS011;7597;53.590;10.020;2023-03-01T06:21:35;8.60;;;5.57;;
15002;SDS011;7597;53.590;10.020;2023-03-01T06:24:01;13.70;;;8.37;;
15002;SDS011;7597;53.590;10.020;2023-03-01T06:26:28;9.80;;;5.57;;
15002;SDS011;7597;53.590;10.020;2023-03-01T06:28:55;9.77;;;5.40;;
15002;SDS011;7597;53.590;10.020;2023-03-01T06:31:21;11.37;;;5.60;;
15002;SDS011;7597;53.590;10.020;2023-03-01T06:33:48;9.93;;;6.13;;
15002;SDS011;7597;53.590;10.020;2023-03-01T06:36:14;9.87;;;6.50;;
15002;SDS011;7597;53.590;10.020;2023-03-01T06:38:41;8.60;;;5.77;;
15002;SDS011;7597;53.590;10.020;2023-03-01T06:41:08;7.83;;;5.63;;
15002;SDS011;7597;53.590;10.020;2023-03-01T06:43:34;9.00;;;5.43;;
15002;SDS011;7597;53.590;10.020;2023-03-01T06:46:03;10.60;;;5.70;;
15002;SDS011;7597;53.590;10.020;2023-03-01T06:48:30;9.37;;;5.13;;
15002;SDS011;7597;53.590;10.020;2023-03-01T06:50:58;9.67;;;5.77;;
15002;SDS011;7597;53.590;10.020;2023-03-01T06:53:25;16.00;;;7.80;;
15002;SDS011;7597;53.590;10.020;2023-03-01T06:55:54;15.70;;;9.80;;
15002;SDS011;7597;53.590;10.020;2023-03-01T06:58:20;16.87;;;10.03;;
15002;SDS011;7597;53.590;10.020;2023-03-01T07:00:46;15.50;;;9.50;;
15002;SDS011;7597;53.590;10.020;2023-03-01T07:03:14;9.30;;;5.70;;
15002;SDS011;7597;53.590;10.020;2023-03-01T07:05:40;9.13;;;5.27;;
15002;SDS011;7597;53.590;10.020;2023-03-01T07:08:07;12.77;;;7.83;;
15002;SDS011;7597;53.590;10.020;2023-03-01T07:10:33;7.23;;;4.87;;
15002;SDS011;7597;53.590;10.020;2023-03-01T07:13:00;7.10;;;4.70;;
15002;SDS011;7597;53.590;10.020;2023-03-01T07:15:28;6.27;;;4.70;;
15002;SDS011;7597;53.590;10.020;2023-03-01T07:17:55;16.60;;;8.10;;
15002;SDS011;7597;53.590;10.020;2023-03-01T07:20:21;14.63;;;8.53;;
15002;SDS011;7597;53.590;10.020;2023-03-01T07:22:47;10.77;;;6.20;;
15002;SDS011;7597;53.590;10.020;2023-03-01T07:25:14;7.97;;;5.30;;
15002;SDS011;7597;53.590;10.020;2023-03-01T07:27:41;11.10;;;7.07;;
15002;SDS011;7597;53.590;10.020;2023-03-01T07:30:08;11.03;;;6.10;;
15002;SDS011;7597;53.590;10.020;2023-03-01T07:32:35;8.43;;;5.50;;
15002;SDS011;7597;53.590;10.020;2023-03-01T07:35:02;9.17;;;5.60;;
15002;SDS011;7597;53.590;10.020;2023-03-01T07:37:29;16.60;;;10.80;;
15002;SDS011;7597;53.590;10.020;2023-03-01T07:39:59;18.80;;;11.90;;
15002;SDS011;7597;53.590;10.020;2023-03-01T07:45:23;18.20;;;9.80;;
15002;SDS011;7597;53.590;10.020;2023-03-01T07:47:50;20.43;;;12.00;;
15002;SDS011;7597;53.590;10.020;2023-03-01T07:50:19;12.93;;;9.57;;
15002;SDS011;7597;53.590;10.020;2023-03-01T07:52:46;13.20;;;8.30;;
15002;SDS011;7597;53.590;10.020;2023-03-01T07:55:12;12.93;;;8.90;;
15002;SDS011;7597;53.590;10.020;2023-03-01T07:57:39;12.97;;;8.97;;
15002;SDS011;7597;53.590;10.020;2023-03-01T08:00:06;14.10;;;10.10;;
15002;SDS011;7597;53.590;10.020;2023-03-01T08:02:34;12.20;;;9.00;;
15002;SDS011;7597;53.590;10.020;2023-03-01T08:05:00;18.90;;;11.63;;
15002;SDS011;7597;53.590;10.020;2023-03-01T08:07:27;13.83;;;9.50;;
15002;SDS011;7597;53.590;10.020;2023-03-01T08:09:54;14.83;;;10.87;;
15002;SDS011;7597;53.590;10.020;2023-03-01T08:12:21;14.45;;;10.52;;
15002;SDS011;7597;53.590;10.020;2023-03-01T08:14:48;14.63;;;10.73;;
15002;SDS011;7597;53.590;10.020;2023-03-01T08:17:14;15.73;;;10.40;;
15002;SDS011;7597;53.590;10.020;2023-03-01T08:19:44;17.05;;;12.00;;
15002;SDS011;7597;53.590;10.020;2023-03-01T08:22:11;16.33;;;11.30;;
15002;SDS011;7597;53.590;10.020;2023-03-01T08:24:38;11.88;;;9.52;;
15002;SDS011;7597;53.590;10.020;2023-03-01T08:27:05;15.70;;;10.95;;
15002;SDS011;7597;53.590;10.020;2023-03-01T08:29:32;12.27;;;9.68;;
15002;SDS011;7597;53.590;10.020;2023-03-01T08:31:58;12.00;;;9.35;;
15002;SDS011;7597;53.590;10.020;2023-03-01T08:34:25;13.57;;;9.95;;
15002;SDS011;7597;53.590;10.020;2023-03-01T08:36:52;15.13;;;11.60;;
15002;SDS011;7597;53.590;10.020;2023-03-01T08:39:19;13.48;;;10.55;;
15002;SDS011;7597;53.590;10.020;2023-03-01T08:41:45;14.20;;;9.82;;
15002;SDS011;7597;53.590;10.020;2023-03-01T08:44:13;11.18;;;9.00;;
15002;SDS011;7597;53.590;10.020;2023-03-01T08:46:40;12.88;;;9.60;;
15002;SDS011;7597;53.590;10.020;2023-03-01T08:49:07;11.80;;;9.75;;
15002;SDS011;7597;53.590;10.020;2023-03-01T08:51:33;15.07;;;9.77;;
15002;SDS011;7597;53.590;10.020;2023-03-01T08:53:59;15.38;;;9.60;;
15002;SDS011;7597;53.590;10.020;2023-03-01T08:56:26;12.18;;;8.73;;
15002;SDS011;7597;53.590;10.020;2023-03-01T08:58:53;17.87;;;12.63;;
15002;SDS011;7597;53.590;10.020;2023-03-01T09:01:21;14.98;;;11.32;;
15002;SDS011;7597;53.590;10.020;2023-03-01T09:03:47;14.87;;;10.68;;
15002;SDS011;7597;53.590;10.020;2023-03-01T09:06:14;16.75;;;12.98;;
15002;SDS011;7597;53.590;10.020;2023-03-01T09:08:41;21.48;;;15.27;;
15002;SDS011;7597;53.590;10.020;2023-03-01T09:11:08;16.23;;;12.18;;
15002;SDS011;7597;53.590;10.020;2023-03-01T09:13:35;17.25;;;11.18;;
15002;SDS011;7597;53.590;10.020;2023-03-01T09:16:02;40.72;;;26.10;;
15002;SDS011;7597;53.590;10.020;2023-03-01T09:18:28;13.68;;;10.68;;
15002;SDS011;7597;53.590;10.020;2023-03-01T09:21:01;20.45;;;13.55;;
15002;SDS011;7597;53.590;10.020;2023-03-01T09:23:28;21.85;;;14.18;;
15002;SDS011;7597;53.590;10.020;2023-03-01T09:25:54;15.20;;;11.00;;
15002;SDS011;7597;53.590;10.020;2023-03-01T09:28:21;19.48;;;12.25;;
15002;SDS011;7597;53.590;10.020;2023-03-01T09:30:48;17.55;;;11.00;;
15002;SDS011;7597;53.590;10.020;2023-03-01T09:33:15;16.70;;;12.45;;
15002;SDS011;7597;53.590;10.020;2023-03-01T09:35:42;12.07;;;10.07;;
15002;SDS011;7597;53.590;10.020;2023-03-01T09:38:09;15.48;;;11.38;;
15002;SDS011;7597;53.590;10.020;2023-03-01T09:40:36;38.22;;;23.40;;
15002;SDS011;7597;53.590;10.020;2023-03-01T09:43:08;31.12;;;21.60;;
15002;SDS011;7597;53.590;10.020;2023-03-01T09:45:34;19.55;;;12.32;;
15002;SDS011;7597;53.590;10.020;2023-03-01T09:48:01;22.40;;;16.17;;
15002;SDS011;7597;53.590;10.020;2023-03-01T09:50:31;23.08;;;15.77;;
15002;SDS011;7597;53.590;10.020;2023-03-01T09:53:02;13.85;;;9.68;;
15002;SDS011;7597;53.590;10.020;2023-03-01T09:55:32;14.75;;;10.18;;
15002;SDS011;7597;53.590;10.020;2023-03-01T09:58:00;16.30;;;12.25;;
15002;SDS011;7597;53.590;10.020;2023-03-01T10:00:42;13.73;;;9.57;;
15002;SDS011;7597;53.590;10.020;2023-03-01T10:05:47;17.45;;;12.55;;
15002;SDS011;7597;53.590;10.020;2023-03-01T10:08:22;14.45;;;9.77;;
15002;SDS011;7597;53.590;10.020;2023-03-01T10:10:46;26.37;;;16.17;;
15002;SDS011;7597;53.590;10.020;2023-03-01T10:13:16;12.13;;;10.32;;
15002;SDS011;7597;53.590;10.020;2023-03-01T10:15:47;13.73;;;11.68;;
15002;SDS011;7597;53.590;10.020;2023-03-01T10:18:16;14.68;;;11.85;;
15002;SDS011;7597;53.590;10.020;2023-03-01T10:20:44;14.70;;;12.55;;
15002;SDS011;7597;53.590;10.020;2023-03-01T10:23:30;11.40;;;10.20;;
15002;SDS011;7597;53.590;10.020;2023-03-01T10:28:50;10.50;;;8.45;;
15002;SDS011;7597;53.590;10.020;2023-03-01T10:34:08;13.10;;;9.15;;
15002;SDS011;7597;53.590;10.020;2023-03-01T10:36:34;10.90;;;8.85;;
15002;SDS011;7597;53.590;10.020;2023-03-01T10:39:01;24.58;;;18.10;;
15002;SDS011;7597;53.590;10.020;2023-03-01T10:41:28;25.45;;;19.65;;
15002;SDS011;7597;53.590;10.020;2023-03-01T10:43:56;16.48;;;12.70;;
15002;SDS011;7597;53.590;10.020;2023-03-01T10:46:24;13.27;;;9.68;;
15002;SDS011;7597;53.590;10.020;2023-03-01T10:51:32;18.98;;;14.95;;
15002;SDS011;7597;53.590;10.020;2023-03-01T10:53:59;13.30;;;10.50;;
15002;SDS011;7597;53.590;10.020;2023-03-01T10:56:27;9.90;;;8.38;;
15002;SDS011;7597;53.590;10.020;2023-03-01T10:59:00;12.15;;;9.63;;
15002;SDS011;7597;53.590;10.020;2023-03-01T11:01:27;14.35;;;10.95;;
15002;SDS011;7597;53.590;10.020;2023-03-01T11:04:13;24.20;;;18.75;;
15002;SDS011;7597;53.590;10.020;2023-03-01T11:06:39;13.80;;;10.20;;
15002;SDS011;7597;53.590;10.020;2023-03-01T11:11:54;11.25;;;8.82;;
15002;SDS011;7597;53.590;10.020;2023-03-01T11:14:22;14.95;;;9.05;;
15002;SDS011;7597;53.590;10.020;2023-03-01T11:16:49;10.68;;;8.90;;
15002;SDS011;7597;53.590;10.020;2023-03-01T11:19:17;9.52;;;8.23;;
15002;SDS011;7597;53.590;10.020;2023-03-01T11:21:47;10.85;;;8.85;;
15002;SDS011;7597;53.590;10.020;2023-03-01T11:24:23;8.35;;;7.18;;
15002;SDS011;7597;53.590;10.020;2023-03-01T11:26:50;8.48;;;7.28;;
15002;SDS011;7597;53.590;10.020;2023-03-01T11:29:17;9.07;;;8.00;;
15002;SDS011;7597;53.590;10.020;2023-03-01T11:31:44;9.85;;;8.27;;
15002;SDS011;7597;53.590;10.020;2023-03-01T11:34:13;7.97;;;7.18;;
15002;SDS011;7597;53.590;10.020;2023-03-01T11:36:44;21.23;;;16.52;;
15002;SDS011;7597;53.590;10.020;2023-03-01T11:39:18;8.40;;;6.90;;
15002;SDS011;7597;53.590;10.020;2023-03-01T11:41:43;15.68;;;13.02;;
15002;SDS011;7597;53.590;10.020;2023-03-01T11:44:12;10.05;;;9.05;;
15002;SDS011;7597;53.590;10.020;2023-03-01T11:50:33;9.05;;;7.28;;
15002;SDS011;7597;53.590;10.020;2023-03-01T11:52:22;11.05;;;9.32;;
15002;SDS011;7597;53.590;10.020;2023-03-01T11:55:26;15.18;;;11.55;;
15002;SDS011;7597;53.590;10.020;2023-03-01T12:03:19;6.53;;;5.93;;
15002;SDS011;7597;53.590;10.020;2023-03-01T12:06:33;6.65;;;5.70;;
15002;SDS011;7597;53.590;10.020;2023-03-01T12:08:49;9.48;;;7.40;;
15002;SDS011;7597;53.590;10.020;2023-03-01T12:11:22;6.25;;;5.62;;
15002;SDS011;7597;53.590;10.020;2023-03-01T12:14:08;6.65;;;5.93;;
15002;SDS011;7597;53.590;10.020;2023-03-01T12:17:02;9.68;;;7.25;;
15002;SDS011;7597;53.590;10.020;2023-03-01T12:19:30;7.00;;;5.75;;
15002;SDS011;7597;53.590;10.020;2023-03-01T12:22:17;5.72;;;5.18;;
15002;SDS011;7597;53.590;10.020;2023-03-01T12:25:05;6.68;;;5.47;;
15002;SDS011;7597;53.590;10.020;2023-03-01T12:33:17;7.65;;;6.85;;
15002;SDS011;7597;53.590;10.020;2023-03-01T12:35:49;6.40;;;5.28;;
15002;SDS011;7597;53.590;10.020;2023-03-01T12:38:17;5.35;;;4.50;;
15002;SDS011;7597;53.590;10.020;2023-03-01T12:40:44;7.03;;;5.10;;
15002;SDS011;7597;53.590;10.020;2023-03-01T12:43:17;10.05;;;7.80;;
15002;SDS011;7597;53.590;10.020;2023-03-01T12:48:36;7.82;;;5.32;;
15002;SDS011;7597;53.590;10.020;2023-03-01T12:51:10;8.88;;;5.50;;
15002;SDS011;7597;53.590;10.020;2023-03-01T12:53:36;7.55;;;5.60;;
15002;SDS011;7597;53.590;10.020;2023-03-01T12:56:06;4.70;;;4.10;;
15002;SDS011;7597;53.590;10.020;2023-03-01T12:58:34;7.40;;;5.45;;
15002;SDS011;7597;53.590;10.020;2023-03-01T13:01:19;7.43;;;6.10;;
15002;SDS011;7597;53.590;10.020;2023-03-01T13:03:55;6.00;;;5.32;;
15002;SDS011;7597;53.590;10.020;2023-03-01T13:06:17;5.95;;;5.40;;
15002;SDS011;7597;53.590;10.020;2023-03-01T13:08:58;6.35;;;5.75;;
15002;SDS011;7597;53.590;10.020;2023-03-01T13:11:30;6.37;;;5.45;;
15002;SDS011;7597;53.590;10.020;2023-03-01T13:16:44;6.03;;;5.43;;
15002;SDS011;7597;53.590;10.020;2023-03-01T13:19:13;8.00;;;5.22;;
15002;SDS011;7597;53.590;10.020;2023-03-01T13:21:41;8.05;;;6.87;;
15002;SDS011;7597;53.590;10.020;2023-03-01T13:34:52;5.95;;;5.22;;
15002;SDS011;7597;53.590;10.020;2023-03-01T13:37:21;6.30;;;5.12;;
15002;SDS011;7597;53.590;10.020;2023-03-01T13:39:46;7.43;;;6.00;;
15002;SDS011;7597;53.590;10.020;2023-03-01T13:42:34;6.65;;;5.57;;
15002;SDS011;7597;53.590;10.020;2023-03-01T13:44:59;6.65;;;5.68;;
15002;SDS011;7597;53.590;10.020;2023-03-01T13:47:26;8.27;;;5.53;;
15002;SDS011;7597;53.590;10.020;2023-03-01T13:49:56;7.90;;;6.28;;
15002;SDS011;7597;53.590;10.020;2023-03-01T13:52:33;8.68;;;6.50;;
15002;SDS011;7597;53.590;10.020;2023-03-01T13:55:06;7.78;;;5.15;;
15002;SDS011;7597;53.590;10.020;2023-03-01T13:57:37;7.68;;;5.65;;
15002;SDS011;7597;53.590;10.020;2023-03-01T14:00:05;6.22;;;5.55;;
15002;SDS011;7597;53.590;10.020;2023-03-01T14:02:33;6.15;;;5.00;;
15002;SDS011;7597;53.590;10.020;2023-03-01T14:05:00;5.40;;;4.65;;
15002;SDS011;7597;53.590;10.020;2023-03-01T14:07:27;9.48;;;6.40;;
15002;SDS011;7597;53.590;10.020;2023-03-01T14:09:56;7.22;;;5.68;;
15002;SDS011;7597;53.590;10.020;2023-03-01T14:15:14;8.65;;;6.60;;
15002;SDS011;7597;53.590;10.020;2023-03-01T14:18:02;6.68;;;5.60;;
15002;SDS011;7597;53.590;10.020;2023-03-01T14:20:36;6.55;;;5.05;;
15002;SDS011;7597;53.590;10.020;2023-03-01T14:23:01;6.18;;;4.80;;
15002;SDS011;7597;53.590;10.020;2023-03-01T14:25:28;7.20;;;6.10;;
15002;SDS011;7597;53.590;10.020;2023-03-01T14:27:58;7.12;;;4.68;;
15002;SDS011;7597;53.590;10.020;2023-03-01T14:30:25;5.47;;;4.72;;
15002;SDS011;7597;53.590;10.020;2023-03-01T14:32:53;5.87;;;4.47;;
15002;SDS011;7597;53.590;10.020;2023-03-01T14:35:20;7.15;;;5.32;;
15002;SDS011;7597;53.590;10.020;2023-03-01T14:37:46;5.82;;;4.55;;
15002;SDS011;7597;53.590;10.020;2023-03-01T14:40:29;6.75;;;5.20;;
15002;SDS011;7597;53.590;10.020;2023-03-01T14:42:55;6.32;;;4.60;;
15002;SDS011;7597;53.590;10.020;2023-03-01T14:45:22;6.22;;;4.32;;
15002;SDS011;7597;53.590;10.020;2023-03-01T14:47:48;6.12;;;4.68;;
15002;SDS011;7597;53.590;10.020;2023-03-01T14:50:19;6.37;;;4.80;;
15002;SDS011;7597;53.590;10.020;2023-03-01T14:52:45;4.60;;;4.15;;
15002;SDS011;7597;53.590;10.020;2023-03-01T14:55:15;6.65;;;5.45;;
15002;SDS011;7597;53.590;10.020;2023-03-01T14:57:43;15.75;;;11.85;;
15002;SDS011;7597;53.590;10.020;2023-03-01T15:00:10;5.18;;;4.62;;
15002;SDS011;7597;53.590;10.020;2023-03-01T15:02:38;5.97;;;4.93;;
15002;SDS011;7597;53.590;10.020;2023-03-01T15:05:05;8.05;;;4.85;;
15002;SDS011;7597;53.590;10.020;2023-03-01T15:07:35;6.35;;;5.10;;
15002;SDS011;7597;53.590;10.020;2023-03-01T15:09:59;5.53;;;4.97;;
15002;SDS011;7597;53.590;10.020;2023-03-01T15:12:34;7.53;;;5.65;;
15002;SDS011;7597;53.590;10.020;2023-03-01T15:15:06;7.20;;;5.10;;
15002;SDS011;7597;53.590;10.020;2023-03-01T15:17:32;6.43;;;5.00;;
15002;SDS011;7597;53.590;10.020;2023-03-01T15:19:58;7.62;;;4.90;;
15002;SDS011;7597;53.590;10.020;2023-03-01T15:22:25;5.95;;;5.03;;
15002;SDS011;7597;53.590;10.020;2023-03-01T15:24:51;6.35;;;4.97;;
15002;SDS011;7597;53.590;10.020;2023-03-01T15:27:22;7.25;;;5.28;;
15002;SDS011;7597;53.590;10.020;2023-03-01T15:29:49;8.18;;;5.22;;
15002;SDS011;7597;53.590;10.020;2023-03-01T15:34:49;7.45;;;5.95;;
15002;SDS011;7597;53.590;10.020;2023-03-01T15:39:55;5.68;;;4.80;;
15002;SDS011;7597;53.590;10.020;2023-03-01T15:45:09;5.50;;;4.68;;